createdAt,value
2022-12-03T00:00:18.506Z,40.50
2022-12-03T00:02:47.223Z,30.88
2022-12-03T00:05:15.837Z,34.53
2022-12-03T00:07:44.427Z,32.53
2022-12-03T00:10:14.538Z,36.83
2022-12-03T00:12:43.104Z,29.90
2022-12-03T00:15:12.778Z,34.88
2022-12-03T00:17:41.480Z,34.03
2022-12-03T00:20:12.881Z,35.85
2022-12-03T00:22:41.473Z,36.42
2022-12-03T00:25:10.779Z,35.15
2022-12-03T00:27:40.737Z,40.25
2022-12-03T00:30:10.863Z,32.67
2022-12-03T00:32:39.463Z,33.20
2022-12-03T00:35:08.648Z,33.30
2022-12-03T00:37:37.211Z,34.80
2022-12-03T00:40:06.926Z,34.10
2022-12-03T00:42:35.979Z,38.55
2022-12-03T00:47:35.682Z,29.23
2022-12-03T00:50:04.579Z,31.05
2022-12-03T00:52:33.251Z,31.90
2022-12-03T00:55:01.775Z,31.90
2022-12-03T00:57:30.352Z,31.50
2022-12-03T00:59:58.849Z,29.05
2022-12-03T01:02:28.818Z,29.40
2022-12-03T01:04:57.560Z,28.38
2022-12-03T01:07:26.906Z,31.02
2022-12-03T01:09:55.567Z,34.92
2022-12-03T01:12:27.656Z,30.38
2022-12-03T01:14:56.333Z,33.20
2022-12-03T01:17:25.473Z,30.67
2022-12-03T01:19:55.703Z,31.67
2022-12-03T01:22:24.252Z,27.67
2022-12-03T01:24:53.013Z,27.05
2022-12-03T01:27:21.774Z,29.92
2022-12-03T01:29:50.394Z,31.35
2022-12-03T01:32:18.295Z,34.42
2022-12-03T01:34:48.087Z,29.65
2022-12-03T01:37:19.105Z,32.05
2022-12-03T01:39:47.659Z,32.28
2022-12-03T01:42:19.437Z,33.22
2022-12-03T01:44:48.359Z,34.40
2022-12-03T01:47:19.036Z,34.60
2022-12-03T01:49:52.137Z,30.83
2022-12-03T01:52:25.781Z,31.38
2022-12-03T01:54:56.857Z,33.00
2022-12-03T01:57:28.343Z,26.20
2022-12-03T02:00:01.174Z,28.83
2022-12-03T02:02:34.254Z,32.17
2022-12-03T02:05:08.682Z,29.35
2022-12-03T02:07:38.768Z,33.58
2022-12-03T02:10:08.564Z,27.30
2022-12-03T02:15:10.017Z,33.17
2022-12-03T02:17:39.359Z,28.88
2022-12-03T02:20:10.223Z,31.83
2022-12-03T02:22:47.731Z,33.65
2022-12-03T02:25:24.492Z,30.80
2022-12-03T02:27:55.650Z,30.63
2022-12-03T02:30:27.011Z,30.20
2022-12-03T02:32:57.094Z,33.22
2022-12-03T02:35:27.288Z,33.47
2022-12-03T02:38:14.238Z,36.63
2022-12-03T02:41:03.985Z,32.30
2022-12-03T02:43:33.474Z,30.00
2022-12-03T02:46:03.767Z,34.95
2022-12-03T02:48:35.845Z,33.67
2022-12-03T02:51:09.276Z,30.55
2022-12-03T02:53:42.677Z,30.50
2022-12-03T02:56:15.756Z,29.30
2022-12-03T02:58:46.104Z,33.88
2022-12-03T03:01:15.552Z,26.83
2022-12-03T03:03:45.579Z,29.55
2022-12-03T03:06:14.559Z,29.30
2022-12-03T03:08:44.184Z,30.17
2022-12-03T03:11:14.525Z,29.70
2022-12-03T03:13:43.239Z,34.47
2022-12-03T03:16:12.534Z,28.98
2022-12-03T03:18:41.340Z,29.52
2022-12-03T03:21:11.172Z,37.30
2022-12-03T03:23:39.829Z,34.50
2022-12-03T03:26:10.167Z,28.02
2022-12-03T03:28:43.547Z,32.55
2022-12-03T03:31:15.117Z,36.05
2022-12-03T03:33:46.786Z,32.38
2022-12-03T03:36:16.248Z,33.17
2022-12-03T03:38:44.837Z,37.17
2022-12-03T03:41:15.205Z,35.60
2022-12-03T03:43:49.265Z,36.78
2022-12-03T03:46:18.746Z,34.63
2022-12-03T03:48:49.551Z,35.55
2022-12-03T03:51:20.049Z,41.97
2022-12-03T03:53:51.057Z,35.47
2022-12-03T03:56:21.859Z,40.35
2022-12-03T03:58:51.779Z,33.22
2022-12-03T04:01:20.632Z,36.05
2022-12-03T04:03:49.205Z,39.17
2022-12-03T04:06:17.858Z,41.17
2022-12-03T04:08:46.336Z,37.08
2022-12-03T04:11:40.766Z,40.42
2022-12-03T04:14:10.664Z,42.22
2022-12-03T04:16:39.323Z,37.95
2022-12-03T04:19:07.814Z,40.17
2022-12-03T04:21:53.680Z,32.60
2022-12-03T04:24:22.215Z,38.92
2022-12-03T04:27:08.147Z,37.80
2022-12-03T04:29:38.199Z,44.22
2022-12-03T04:32:24.456Z,37.97
2022-12-03T04:35:10.756Z,35.90
2022-12-03T04:37:39.367Z,32.53
2022-12-03T04:40:29.554Z,33.10
2022-12-03T04:42:58.126Z,37.53
2022-12-03T04:45:28.008Z,36.65
2022-12-03T04:47:56.533Z,38.03
2022-12-03T04:50:25.179Z,33.70
2022-12-03T04:52:53.679Z,32.03
2022-12-03T04:55:22.144Z,34.85
2022-12-03T04:57:50.661Z,31.50
2022-12-03T05:00:19.655Z,36.13
2022-12-03T05:02:49.788Z,37.83
2022-12-03T05:05:18.609Z,30.52
2022-12-03T05:07:47.192Z,31.48
2022-12-03T05:10:15.679Z,35.00
2022-12-03T05:12:44.204Z,36.33
2022-12-03T05:15:12.943Z,34.97
2022-12-03T05:17:41.413Z,40.05
2022-12-03T05:20:30.687Z,32.30
2022-12-03T05:22:59.195Z,31.83
2022-12-03T05:25:27.708Z,28.25
2022-12-03T05:27:56.317Z,29.27
2022-12-03T05:30:25.005Z,30.38
2022-12-03T05:32:53.645Z,25.50
2022-12-03T05:35:23.548Z,27.55
2022-12-03T05:37:53.636Z,31.58
2022-12-03T05:40:22.292Z,30.58
2022-12-03T05:42:56.896Z,30.20
2022-12-03T05:45:27.358Z,33.70
2022-12-03T05:47:56.835Z,27.15
2022-12-03T05:50:28.565Z,29.42
2022-12-03T05:52:57.087Z,31.88
2022-12-03T05:55:26.418Z,30.42
2022-12-03T05:57:55.127Z,29.00
2022-12-03T06:00:26.105Z,27.75
2022-12-03T06:02:55.290Z,30.65
2022-12-03T06:05:24.794Z,28.67
2022-12-03T06:07:54.815Z,28.25
2022-12-03T06:10:25.611Z,28.50
2022-12-03T06:12:54.595Z,28.10
2022-12-03T06:15:23.129Z,34.63
2022-12-03T06:17:51.707Z,34.17
2022-12-03T06:20:22.084Z,28.65
2022-12-03T06:22:50.662Z,25.40
2022-12-03T06:25:20.568Z,22.95
2022-12-03T06:27:49.093Z,25.25
2022-12-03T06:30:17.849Z,26.27
2022-12-03T06:32:46.601Z,25.70
2022-12-03T06:35:15.101Z,27.65
2022-12-03T06:37:43.644Z,28.95
2022-12-03T06:40:13.477Z,27.52
2022-12-03T06:45:12.714Z,27.38
2022-12-03T06:47:41.241Z,24.70
2022-12-03T06:50:10.725Z,26.83
2022-12-03T06:52:39.251Z,26.98
2022-12-03T06:55:08.775Z,31.20
2022-12-03T06:57:37.323Z,28.17
2022-12-03T07:00:10.064Z,28.00
2022-12-03T07:02:38.814Z,31.02
2022-12-03T07:05:07.664Z,26.90
2022-12-03T07:07:36.273Z,28.37
2022-12-03T07:10:05.340Z,26.60
2022-12-03T07:12:34.004Z,29.33
2022-12-03T07:15:02.586Z,26.98
2022-12-03T07:17:32.476Z,25.17
2022-12-03T07:20:01.011Z,22.35
2022-12-03T07:22:29.491Z,22.65
2022-12-03T07:24:58.062Z,25.00
2022-12-03T07:27:26.568Z,23.33
2022-12-03T07:29:55.073Z,25.25
2022-12-03T07:32:23.586Z,20.77
2022-12-03T07:34:53.667Z,22.48
2022-12-03T07:37:23.441Z,26.10
2022-12-03T07:42:21.247Z,21.73
2022-12-03T07:44:49.736Z,24.70
2022-12-03T07:47:18.595Z,24.15
2022-12-03T07:49:47.113Z,28.70
2022-12-03T07:52:17.039Z,28.90
2022-12-03T07:54:45.842Z,28.17
2022-12-03T07:57:14.415Z,26.88
2022-12-03T07:59:42.881Z,24.35
2022-12-03T08:02:11.508Z,63.08
2022-12-03T08:04:40.051Z,48.72
2022-12-03T08:07:08.548Z,29.80
2022-12-03T08:09:40.937Z,27.15
2022-12-03T08:12:18.255Z,29.05
2022-12-03T08:14:46.848Z,25.77
2022-12-03T08:17:18.013Z,27.35
2022-12-03T08:19:48.264Z,27.20
2022-12-03T08:22:17.639Z,25.75
2022-12-03T08:24:47.499Z,26.00
2022-12-03T08:29:46.371Z,28.52
2022-12-03T08:32:15.032Z,31.02
2022-12-03T08:34:45.516Z,28.95
2022-12-03T08:37:18.152Z,36.83
2022-12-03T08:39:49.745Z,32.65
2022-12-03T08:42:40.944Z,30.25
2022-12-03T08:45:43.337Z,32.13
2022-12-03T08:48:38.011Z,27.80
2022-12-03T08:51:14.222Z,22.00
2022-12-03T08:53:47.210Z,23.15
2022-12-03T08:56:23.447Z,26.15
2022-12-03T08:58:54.918Z,29.33
2022-12-03T09:01:31.928Z,21.85
2022-12-03T09:04:16.834Z,30.88
2022-12-03T09:06:45.490Z,24.75
2022-12-03T09:09:14.018Z,32.42
2022-12-03T09:11:44.438Z,27.33
2022-12-03T09:14:18.460Z,26.25
2022-12-03T09:16:48.015Z,25.75
2022-12-03T09:19:16.766Z,25.88
2022-12-03T09:21:45.933Z,25.45
2022-12-03T09:24:14.519Z,29.13
2022-12-03T09:26:44.633Z,25.80
2022-12-03T09:29:13.201Z,26.92
2022-12-03T09:31:42.314Z,26.15
2022-12-03T09:34:12.533Z,23.20
2022-12-03T09:36:41.101Z,29.00
2022-12-03T09:39:09.615Z,24.10
2022-12-03T09:41:38.559Z,39.08
2022-12-03T09:44:13.950Z,33.40
2022-12-03T09:46:49.265Z,46.30
2022-12-03T09:49:19.594Z,46.47
2022-12-03T09:51:48.684Z,39.78
2022-12-03T09:54:24.665Z,38.20
2022-12-03T09:56:53.878Z,38.53
2022-12-03T09:59:27.432Z,39.72
2022-12-03T10:01:56.230Z,37.13
2022-12-03T10:04:25.853Z,41.80
2022-12-03T10:06:54.559Z,42.83
2022-12-03T10:09:27.079Z,42.45
2022-12-03T10:11:56.606Z,42.90
2022-12-03T10:14:27.050Z,42.17
2022-12-03T10:16:55.715Z,44.15
2022-12-03T10:19:27.455Z,42.50
2022-12-03T10:21:56.888Z,38.35
2022-12-03T10:24:28.967Z,43.65
2022-12-03T10:26:59.509Z,39.30
2022-12-03T10:29:33.971Z,37.78
2022-12-03T10:32:05.972Z,46.67
2022-12-03T10:34:36.446Z,34.95
2022-12-03T10:37:14.443Z,34.58
2022-12-03T10:39:57.724Z,37.03
2022-12-03T10:42:27.790Z,39.45
2022-12-03T10:45:18.116Z,36.65
2022-12-03T10:48:05.133Z,36.10
2022-12-03T10:50:35.576Z,35.92
2022-12-03T10:53:04.226Z,39.70
2022-12-03T10:55:40.290Z,37.13
2022-12-03T10:58:17.125Z,35.33
2022-12-03T11:00:47.376Z,39.63
2022-12-03T11:03:21.481Z,37.63
2022-12-03T11:05:51.209Z,37.38
2022-12-03T11:08:22.022Z,39.85
2022-12-03T11:10:59.315Z,38.72
2022-12-03T11:13:52.432Z,36.25
2022-12-03T11:17:05.682Z,35.17
2022-12-03T11:19:50.147Z,33.70
2022-12-03T11:22:43.598Z,31.38
2022-12-03T11:25:50.433Z,34.03
2022-12-03T11:28:35.795Z,35.13
2022-12-03T11:31:09.871Z,32.72
2022-12-03T11:33:40.287Z,35.30
2022-12-03T11:36:31.610Z,35.25
2022-12-03T11:39:10.156Z,31.33
2022-12-03T11:41:39.497Z,29.90
2022-12-03T11:44:30.379Z,35.35
2022-12-03T11:47:02.147Z,34.83
2022-12-03T11:49:39.491Z,35.97
2022-12-03T11:52:30.438Z,33.90
2022-12-03T11:55:05.758Z,33.65
2022-12-03T11:57:37.680Z,36.83
2022-12-03T12:00:17.118Z,38.38
2022-12-03T12:02:45.945Z,29.48
2022-12-03T12:05:20.920Z,40.92
2022-12-03T12:07:52.323Z,39.55
2022-12-03T12:10:43.078Z,52.25
2022-12-03T12:13:33.962Z,39.53
2022-12-03T12:16:05.191Z,39.50
2022-12-03T12:18:38.786Z,36.35
2022-12-03T12:21:43.050Z,33.33
2022-12-03T12:24:33.148Z,46.45
2022-12-03T12:27:04.352Z,30.90
2022-12-03T12:29:33.199Z,31.25
2022-12-03T12:32:11.850Z,37.13
2022-12-03T12:34:43.186Z,38.43
2022-12-03T12:37:22.281Z,40.10
2022-12-03T12:39:57.311Z,40.28
2022-12-03T12:42:31.504Z,41.50
2022-12-03T12:45:03.034Z,39.70
2022-12-03T12:47:35.089Z,42.50
2022-12-03T12:50:05.679Z,37.65
2022-12-03T12:52:35.483Z,39.47
2022-12-03T13:00:06.059Z,38.95
2022-12-03T13:02:44.640Z,43.78
2022-12-03T13:05:15.265Z,46.22
2022-12-03T13:07:45.169Z,40.90
2022-12-03T13:10:39.663Z,43.35
2022-12-03T13:13:23.362Z,36.13
2022-12-03T13:16:04.546Z,42.05
2022-12-03T13:18:46.360Z,41.72
2022-12-03T13:21:26.507Z,40.67
2022-12-03T13:23:56.922Z,44.03
2022-12-03T13:29:20.269Z,40.65
2022-12-03T13:31:53.703Z,45.15
2022-12-03T13:34:23.826Z,42.38
2022-12-03T13:36:58.015Z,42.38
2022-12-03T13:39:33.042Z,42.60
2022-12-03T13:42:33.346Z,42.67
2022-12-03T13:45:04.068Z,38.08
2022-12-03T13:47:33.885Z,41.38
2022-12-03T13:55:05.351Z,34.38
2022-12-03T13:57:33.992Z,42.33
2022-12-03T14:00:04.075Z,45.58
2022-12-03T14:02:41.008Z,44.70
2022-12-03T14:05:10.046Z,44.42
2022-12-03T14:07:38.724Z,42.33
2022-12-03T14:10:09.331Z,40.92
2022-12-03T14:12:38.145Z,40.95
2022-12-03T14:15:10.878Z,45.10
2022-12-03T14:17:39.406Z,43.30
2022-12-03T14:20:09.262Z,40.50
2022-12-03T14:25:07.850Z,43.17
2022-12-03T14:27:36.441Z,39.95
2022-12-03T14:30:05.444Z,38.13
2022-12-03T14:32:35.344Z,45.30
2022-12-03T14:37:38.461Z,38.47
2022-12-03T14:40:09.193Z,37.13
2022-12-03T14:42:38.152Z,44.03
2022-12-03T14:45:07.426Z,40.20
2022-12-03T14:47:37.402Z,39.85
2022-12-03T14:50:07.125Z,42.15
2022-12-03T14:52:35.817Z,39.90
2022-12-03T14:55:04.377Z,40.60
2022-12-03T14:57:32.903Z,37.05
2022-12-03T15:00:01.442Z,37.60
2022-12-03T15:02:30.488Z,36.80
2022-12-03T15:05:00.599Z,39.25
2022-12-03T15:07:31.987Z,33.80
2022-12-03T15:10:00.605Z,38.55
2022-12-03T15:12:29.195Z,35.60
2022-12-03T15:15:00.127Z,31.08
2022-12-03T15:17:32.038Z,38.03
2022-12-03T15:20:05.892Z,36.33
2022-12-03T15:22:36.648Z,32.08
2022-12-03T15:25:07.784Z,37.65
2022-12-03T15:27:38.618Z,33.97
2022-12-03T15:30:10.095Z,41.22
2022-12-03T15:32:41.653Z,35.53
2022-12-03T15:35:17.793Z,41.47
2022-12-03T15:37:48.529Z,35.83
2022-12-03T15:40:19.345Z,32.20
2022-12-03T15:42:51.544Z,35.92
2022-12-03T15:45:23.672Z,37.95
2022-12-03T15:47:55.532Z,36.38
2022-12-03T15:50:28.673Z,39.92
2022-12-03T15:52:58.887Z,44.15
2022-12-03T15:55:29.045Z,40.47
2022-12-03T15:57:59.089Z,44.75
2022-12-03T16:00:30.726Z,46.25
2022-12-03T16:03:02.775Z,43.53
2022-12-03T16:05:36.290Z,42.25
2022-12-03T16:08:08.492Z,40.55
2022-12-03T16:10:40.703Z,38.70
2022-12-03T16:13:12.788Z,41.08
2022-12-03T16:15:45.302Z,42.25
2022-12-03T16:18:17.481Z,42.15
2022-12-03T16:20:50.965Z,48.75
2022-12-03T16:23:21.544Z,46.20
2022-12-03T16:25:52.443Z,48.92
2022-12-03T16:28:24.606Z,52.42
2022-12-03T16:30:56.918Z,49.63
2022-12-03T16:33:28.810Z,50.78
2022-12-03T16:36:00.235Z,47.20
2022-12-03T16:38:31.181Z,48.67
2022-12-03T16:41:01.412Z,47.55
2022-12-03T16:43:34.111Z,50.80
2022-12-03T16:46:20.696Z,50.45
2022-12-03T16:48:51.146Z,48.90
2022-12-03T16:51:22.437Z,48.70
2022-12-03T16:53:53.448Z,52.28
2022-12-03T16:56:23.630Z,66.45
2022-12-03T16:58:53.706Z,259.88
2022-12-03T17:01:24.385Z,91.45
2022-12-03T17:03:54.144Z,83.20
2022-12-03T17:06:25.453Z,67.45
2022-12-03T17:08:55.173Z,58.33
2022-12-03T17:11:24.836Z,59.40
2022-12-03T17:13:54.535Z,63.40
2022-12-03T17:18:53.811Z,57.60
2022-12-03T17:21:24.781Z,60.85
2022-12-03T17:23:54.393Z,61.95
2022-12-03T17:26:24.087Z,57.95
2022-12-03T17:28:53.897Z,58.03
2022-12-03T17:33:57.285Z,57.03
2022-12-03T17:36:28.230Z,52.58
2022-12-03T17:38:57.856Z,48.67
2022-12-03T17:41:27.357Z,50.85
2022-12-03T17:43:57.012Z,52.80
2022-12-03T17:46:25.610Z,56.50
2022-12-03T17:48:54.768Z,54.42
2022-12-03T17:51:25.048Z,51.28
2022-12-03T17:53:56.034Z,50.65
2022-12-03T17:56:25.640Z,52.05
2022-12-03T17:58:55.215Z,51.10
2022-12-03T18:01:24.841Z,51.53
2022-12-03T18:03:54.446Z,47.60
2022-12-03T18:06:26.450Z,46.58
2022-12-03T18:08:56.994Z,48.60
2022-12-03T18:11:25.723Z,45.83
2022-12-03T18:13:54.321Z,41.00
2022-12-03T18:16:23.102Z,49.25
2022-12-03T18:18:56.363Z,47.20
2022-12-03T18:21:27.348Z,46.88
2022-12-03T18:26:26.450Z,52.13
2022-12-03T18:28:55.096Z,48.78
2022-12-03T18:31:24.297Z,46.38
2022-12-03T18:33:53.712Z,51.90
2022-12-03T18:36:24.158Z,47.97
2022-12-03T18:38:55.525Z,48.05
2022-12-03T18:41:25.684Z,54.17
2022-12-03T18:43:55.779Z,54.45
2022-12-03T18:46:51.734Z,54.78
2022-12-03T18:49:12.918Z,48.05
2022-12-03T18:51:41.699Z,58.15
2022-12-03T18:54:14.052Z,52.22
2022-12-03T18:56:42.811Z,50.33
2022-12-03T18:59:13.943Z,55.93
2022-12-03T19:01:43.701Z,54.90
2022-12-03T19:04:13.686Z,56.63
2022-12-03T19:06:43.445Z,62.92
2022-12-03T19:11:42.958Z,57.95
2022-12-03T19:14:14.053Z,55.10
2022-12-03T19:16:44.660Z,56.55
2022-12-03T19:19:14.343Z,47.80
2022-12-03T19:21:44.020Z,57.72
2022-12-03T19:24:24.276Z,64.88
2022-12-03T19:26:55.587Z,55.03
2022-12-03T19:29:26.995Z,52.53
2022-12-03T19:31:56.675Z,57.15
2022-12-03T19:36:55.827Z,42.47
2022-12-03T19:39:25.380Z,52.45
2022-12-03T19:41:56.267Z,56.67
2022-12-03T19:44:27.271Z,56.63
2022-12-03T19:46:57.013Z,54.28
2022-12-03T19:49:27.285Z,56.25
2022-12-03T19:51:55.999Z,57.20
2022-12-03T19:54:25.549Z,58.03
2022-12-03T19:56:54.149Z,55.08
2022-12-03T19:59:22.663Z,57.33
2022-12-03T20:01:52.896Z,56.70
2022-12-03T20:04:21.632Z,56.00
2022-12-03T20:06:50.159Z,53.13
2022-12-03T20:09:18.795Z,56.97
2022-12-03T20:11:47.660Z,59.20
2022-12-03T20:14:17.727Z,54.30
2022-12-03T20:16:46.862Z,53.00
2022-12-03T20:19:18.576Z,49.08
2022-12-03T20:21:47.254Z,52.63
2022-12-03T20:24:18.035Z,47.47
2022-12-03T20:26:46.616Z,50.35
2022-12-03T20:29:15.364Z,51.45
2022-12-03T20:31:43.962Z,49.35
2022-12-03T20:34:12.728Z,50.20
2022-12-03T20:36:44.318Z,51.20
2022-12-03T20:39:13.163Z,48.92
2022-12-03T20:41:42.643Z,47.65
2022-12-03T20:44:11.851Z,49.60
2022-12-03T20:46:40.717Z,54.53
2022-12-03T20:49:09.708Z,50.63
2022-12-03T20:51:38.356Z,46.90
2022-12-03T20:54:08.347Z,49.65
2022-12-03T20:56:39.433Z,52.08
2022-12-03T20:59:14.023Z,50.50
2022-12-03T21:01:44.092Z,49.83
2022-12-03T21:04:16.230Z,50.58
2022-12-03T21:06:45.364Z,40.85
2022-12-03T21:09:15.684Z,51.33
2022-12-03T21:11:45.065Z,45.67
2022-12-03T21:14:13.958Z,46.78
2022-12-03T21:17:16.416Z,46.40
2022-12-03T21:19:36.272Z,45.00
2022-12-03T21:22:05.582Z,50.93
2022-12-03T21:24:36.456Z,50.75
2022-12-03T21:27:06.612Z,50.55
2022-12-03T21:29:35.733Z,50.38
2022-12-03T21:32:04.837Z,47.20
2022-12-03T21:34:36.467Z,47.85
2022-12-03T21:37:06.015Z,49.08
2022-12-03T21:39:36.350Z,47.42
2022-12-03T21:42:35.094Z,49.75
2022-12-03T21:44:54.984Z,48.20
2022-12-03T21:47:23.664Z,43.85
2022-12-03T21:49:52.501Z,44.53
2022-12-03T21:52:21.243Z,47.03
2022-12-03T21:54:53.539Z,48.30
2022-12-03T21:57:23.308Z,39.42
2022-12-03T22:02:22.716Z,46.05
2022-12-03T22:07:24.577Z,37.22
2022-12-03T22:09:55.340Z,40.00
2022-12-03T22:12:24.527Z,42.08
2022-12-03T22:14:53.742Z,40.15
2022-12-03T22:17:23.781Z,43.45
2022-12-03T22:19:53.172Z,42.90
2022-12-03T22:22:22.270Z,46.40
2022-12-03T22:24:51.062Z,48.10
2022-12-03T22:27:21.251Z,43.65
2022-12-03T22:29:50.141Z,40.17
2022-12-03T22:32:18.916Z,39.85
2022-12-03T22:34:51.058Z,42.78
2022-12-03T22:37:23.061Z,41.15
2022-12-03T22:39:55.297Z,42.38
2022-12-03T22:42:28.799Z,40.28
2022-12-03T22:45:00.761Z,37.42
2022-12-03T22:47:32.526Z,44.38
2022-12-03T22:50:04.340Z,39.17
2022-12-03T22:52:36.206Z,36.95
2022-12-03T22:55:06.252Z,35.33
2022-12-03T22:57:37.631Z,36.65
2022-12-03T23:00:10.503Z,36.58
2022-12-03T23:02:40.423Z,38.53
2022-12-03T23:05:10.187Z,35.42
2022-12-03T23:10:10.141Z,34.85
2022-12-03T23:12:40.101Z,34.97
2022-12-03T23:15:10.945Z,40.22
2022-12-03T23:17:39.541Z,30.05
2022-12-03T23:20:09.475Z,36.05
2022-12-03T23:22:38.061Z,38.70
2022-12-03T23:25:07.481Z,33.00
2022-12-03T23:27:36.050Z,37.75
2022-12-03T23:30:08.073Z,31.88
2022-12-03T23:32:36.667Z,35.25
2022-12-03T23:35:06.178Z,33.38
2022-12-03T23:37:34.899Z,39.35
2022-12-03T23:40:03.527Z,34.45
2022-12-03T23:42:32.095Z,35.00
2022-12-03T23:45:00.698Z,36.25
2022-12-03T23:47:30.958Z,34.97
2022-12-03T23:49:59.568Z,29.60
2022-12-03T23:52:28.074Z,30.73
2022-12-03T23:54:56.602Z,37.13
2022-12-03T23:57:25.131Z,33.35
2022-12-03T23:59:53.879Z,34.08
